sensor_id;sensor_type;location;lat;lon;timestamp;P1;durP1;ratioP1;P2;durP2;ratioP2
24279;SDS011;12395;42.808;23.408;2022-11-20T00:01:09;3.80;;;1.90;;
24279;SDS011;12395;42.808;23.408;2022-11-20T00:03:42;9.15;;;3.85;;
24279;SDS011;12395;42.808;23.408;2022-11-20T00:06:09;9.90;;;4.00;;
24279;SDS011;12395;42.808;23.408;2022-11-20T00:08:36;6.30;;;2.50;;
24279;SDS011;12395;42.808;23.408;2022-11-20T00:11:03;6.70;;;3.10;;
24279;SDS011;12395;42.808;23.408;2022-11-20T00:13:39;6.00;;;1.77;;
24279;SDS011;12395;42.808;23.408;2022-11-20T00:16:05;11.70;;;4.07;;
24279;SDS011;12395;42.808;23.408;2022-11-20T00:18:33;5.60;;;2.35;;
24279;SDS011;12395;42.808;23.408;2022-11-20T00:21:03;7.05;;;2.70;;
24279;SDS011;12395;42.808;23.408;2022-11-20T00:23:29;5.55;;;2.05;;
24279;SDS011;12395;42.808;23.408;2022-11-20T00:25:55;4.30;;;1.80;;
24279;SDS011;12395;42.808;23.408;2022-11-20T00:28:20;3.58;;;2.00;;
24279;SDS011;12395;42.808;23.408;2022-11-20T00:30:46;7.30;;;2.70;;
24279;SDS011;12395;42.808;23.408;2022-11-20T00:33:11;5.05;;;2.20;;
24279;SDS011;12395;42.808;23.408;2022-11-20T00:35:36;9.05;;;4.25;;
24279;SDS011;12395;42.808;23.408;2022-11-20T00:38:02;4.28;;;1.90;;
24279;SDS011;12395;42.808;23.408;2022-11-20T00:40:27;9.30;;;3.70;;
24279;SDS011;12395;42.808;23.408;2022-11-20T00:42:52;3.67;;;1.40;;
24279;SDS011;12395;42.808;23.408;2022-11-20T00:45:18;10.77;;;4.72;;
24279;SDS011;12395;42.808;23.408;2022-11-20T00:47:43;11.93;;;5.22;;
24279;SDS011;12395;42.808;23.408;2022-11-20T00:50:09;6.78;;;2.67;;
24279;SDS011;12395;42.808;23.408;2022-11-20T00:52:34;5.28;;;1.73;;
24279;SDS011;12395;42.808;23.408;2022-11-20T00:54:59;3.28;;;1.50;;
24279;SDS011;12395;42.808;23.408;2022-11-20T00:57:25;2.33;;;1.52;;
24279;SDS011;12395;42.808;23.408;2022-11-20T00:59:50;4.05;;;1.55;;
24279;SDS011;12395;42.808;23.408;2022-11-20T01:02:15;3.65;;;1.55;;
24279;SDS011;12395;42.808;23.408;2022-11-20T01:04:41;6.05;;;1.25;;
24279;SDS011;12395;42.808;23.408;2022-11-20T01:07:07;3.75;;;2.38;;
24279;SDS011;12395;42.808;23.408;2022-11-20T01:09:32;3.58;;;2.28;;
24279;SDS011;12395;42.808;23.408;2022-11-20T01:11:58;4.18;;;2.25;;
24279;SDS011;12395;42.808;23.408;2022-11-20T01:14:24;5.32;;;2.40;;
24279;SDS011;12395;42.808;23.408;2022-11-20T01:16:50;2.65;;;1.40;;
24279;SDS011;12395;42.808;23.408;2022-11-20T01:19:20;5.15;;;1.30;;
24279;SDS011;12395;42.808;23.408;2022-11-20T01:21:51;5.57;;;1.20;;
24279;SDS011;12395;42.808;23.408;2022-11-20T01:24:19;5.88;;;1.35;;
24279;SDS011;12395;42.808;23.408;2022-11-20T01:26:46;2.97;;;1.35;;
24279;SDS011;12395;42.808;23.408;2022-11-20T01:29:17;3.88;;;1.20;;
24279;SDS011;12395;42.808;23.408;2022-11-20T01:31:47;4.38;;;1.20;;
24279;SDS011;12395;42.808;23.408;2022-11-20T01:34:14;4.78;;;1.40;;
24279;SDS011;12395;42.808;23.408;2022-11-20T01:36:41;2.63;;;1.38;;
24279;SDS011;12395;42.808;23.408;2022-11-20T01:39:11;3.58;;;1.25;;
24279;SDS011;12395;42.808;23.408;2022-11-20T01:41:48;2.90;;;1.30;;
24279;SDS011;12395;42.808;23.408;2022-11-20T01:47:40;2.42;;;1.60;;
24279;SDS011;12395;42.808;23.408;2022-11-20T01:52:42;3.92;;;1.40;;
24279;SDS011;12395;42.808;23.408;2022-11-20T01:55:21;6.22;;;1.95;;
24279;SDS011;12395;42.808;23.408;2022-11-20T01:57:50;4.47;;;1.38;;
24279;SDS011;12395;42.808;23.408;2022-11-20T02:00:17;4.10;;;1.50;;
24279;SDS011;12395;42.808;23.408;2022-11-20T02:02:46;3.70;;;1.60;;
24279;SDS011;12395;42.808;23.408;2022-11-20T02:05:23;4.53;;;1.60;;
24279;SDS011;12395;42.808;23.408;2022-11-20T02:07:52;3.70;;;1.40;;
24279;SDS011;12395;42.808;23.408;2022-11-20T02:10:19;4.93;;;1.58;;
24279;SDS011;12395;42.808;23.408;2022-11-20T02:12:45;4.85;;;1.48;;
24279;SDS011;12395;42.808;23.408;2022-11-20T02:15:29;2.65;;;1.13;;
24279;SDS011;12395;42.808;23.408;2022-11-20T02:17:54;3.22;;;1.17;;
24279;SDS011;12395;42.808;23.408;2022-11-20T02:20:20;3.45;;;1.40;;
24279;SDS011;12395;42.808;23.408;2022-11-20T02:22:51;4.30;;;1.50;;
24279;SDS011;12395;42.808;23.408;2022-11-20T02:25:24;5.47;;;1.40;;
24279;SDS011;12395;42.808;23.408;2022-11-20T02:27:51;1.98;;;1.20;;
24279;SDS011;12395;42.808;23.408;2022-11-20T02:30:17;2.53;;;1.20;;
24279;SDS011;12395;42.808;23.408;2022-11-20T02:32:43;2.08;;;1.08;;
24279;SDS011;12395;42.808;23.408;2022-11-20T02:37:37;3.80;;;0.98;;
24279;SDS011;12395;42.808;23.408;2022-11-20T02:40:05;3.22;;;1.02;;
24279;SDS011;12395;42.808;23.408;2022-11-20T02:42:31;2.75;;;1.15;;
24279;SDS011;12395;42.808;23.408;2022-11-20T02:44:56;2.45;;;1.10;;
24279;SDS011;12395;42.808;23.408;2022-11-20T02:47:22;2.92;;;1.00;;
24279;SDS011;12395;42.808;23.408;2022-11-20T02:49:47;2.80;;;0.90;;
24279;SDS011;12395;42.808;23.408;2022-11-20T02:52:12;5.20;;;1.00;;
24279;SDS011;12395;42.808;23.408;2022-11-20T02:54:38;3.22;;;1.00;;
24279;SDS011;12395;42.808;23.408;2022-11-20T02:57:03;4.53;;;0.90;;
24279;SDS011;12395;42.808;23.408;2022-11-20T02:59:28;2.60;;;0.95;;
24279;SDS011;12395;42.808;23.408;2022-11-20T03:01:54;2.95;;;0.98;;
24279;SDS011;12395;42.808;23.408;2022-11-20T03:04:19;2.45;;;0.88;;
24279;SDS011;12395;42.808;23.408;2022-11-20T03:06:44;2.40;;;1.00;;
24279;SDS011;12395;42.808;23.408;2022-11-20T03:09:10;2.33;;;0.85;;
24279;SDS011;12395;42.808;23.408;2022-11-20T03:11:35;3.63;;;0.85;;
24279;SDS011;12395;42.808;23.408;2022-11-20T03:14:01;2.17;;;1.13;;
24279;SDS011;12395;42.808;23.408;2022-11-20T03:16:28;5.30;;;2.20;;
24279;SDS011;12395;42.808;23.408;2022-11-20T03:18:53;1.63;;;0.82;;
24279;SDS011;12395;42.808;23.408;2022-11-20T03:21:19;4.38;;;1.40;;
24279;SDS011;12395;42.808;23.408;2022-11-20T03:23:44;2.22;;;1.20;;
24279;SDS011;12395;42.808;23.408;2022-11-20T03:26:11;4.05;;;1.10;;
24279;SDS011;12395;42.808;23.408;2022-11-20T03:28:42;2.78;;;1.27;;
24279;SDS011;12395;42.808;23.408;2022-11-20T03:31:13;1.52;;;0.88;;
24279;SDS011;12395;42.808;23.408;2022-11-20T03:33:39;3.45;;;1.13;;
24279;SDS011;12395;42.808;23.408;2022-11-20T03:36:08;4.25;;;1.30;;
24279;SDS011;12395;42.808;23.408;2022-11-20T03:38:35;2.95;;;1.20;;
24279;SDS011;12395;42.808;23.408;2022-11-20T03:41:02;4.30;;;1.40;;
24279;SDS011;12395;42.808;23.408;2022-11-20T03:43:32;4.65;;;1.40;;
24279;SDS011;12395;42.808;23.408;2022-11-20T03:45:58;2.35;;;1.10;;
24279;SDS011;12395;42.808;23.408;2022-11-20T03:48:24;3.63;;;1.38;;
24279;SDS011;12395;42.808;23.408;2022-11-20T03:50:51;2.67;;;1.10;;
24279;SDS011;12395;42.808;23.408;2022-11-20T03:53:19;3.20;;;1.10;;
24279;SDS011;12395;42.808;23.408;2022-11-20T03:55:45;2.97;;;1.20;;
24279;SDS011;12395;42.808;23.408;2022-11-20T03:58:15;3.75;;;1.30;;
24279;SDS011;12395;42.808;23.408;2022-11-20T04:00:40;2.67;;;0.90;;
24279;SDS011;12395;42.808;23.408;2022-11-20T04:03:06;2.17;;;1.20;;
24279;SDS011;12395;42.808;23.408;2022-11-20T04:05:32;2.17;;;1.05;;
24279;SDS011;12395;42.808;23.408;2022-11-20T04:07:58;4.13;;;1.20;;
24279;SDS011;12395;42.808;23.408;2022-11-20T04:10:24;3.08;;;1.17;;
24279;SDS011;12395;42.808;23.408;2022-11-20T04:12:49;3.25;;;1.35;;
24279;SDS011;12395;42.808;23.408;2022-11-20T04:15:15;2.75;;;1.40;;
24279;SDS011;12395;42.808;23.408;2022-11-20T04:17:40;1.58;;;1.00;;
24279;SDS011;12395;42.808;23.408;2022-11-20T04:20:05;4.07;;;1.20;;
24279;SDS011;12395;42.808;23.408;2022-11-20T04:22:31;5.43;;;1.63;;
24279;SDS011;12395;42.808;23.408;2022-11-20T04:24:57;5.25;;;1.40;;
24279;SDS011;12395;42.808;23.408;2022-11-20T04:27:22;3.60;;;1.58;;
24279;SDS011;12395;42.808;23.408;2022-11-20T04:29:47;5.15;;;2.15;;
24279;SDS011;12395;42.808;23.408;2022-11-20T04:32:13;6.95;;;2.38;;
24279;SDS011;12395;42.808;23.408;2022-11-20T04:34:38;4.82;;;1.70;;
24279;SDS011;12395;42.808;23.408;2022-11-20T04:37:03;4.85;;;1.23;;
24279;SDS011;12395;42.808;23.408;2022-11-20T04:39:29;3.65;;;0.90;;
24279;SDS011;12395;42.808;23.408;2022-11-20T04:41:54;2.28;;;1.00;;
24279;SDS011;12395;42.808;23.408;2022-11-20T04:44:38;4.43;;;0.93;;
24279;SDS011;12395;42.808;23.408;2022-11-20T04:47:04;1.48;;;1.02;;
24279;SDS011;12395;42.808;23.408;2022-11-20T04:49:29;3.83;;;0.90;;
24279;SDS011;12395;42.808;23.408;2022-11-20T04:51:56;1.13;;;0.60;;
24279;SDS011;12395;42.808;23.408;2022-11-20T04:54:22;1.85;;;0.80;;
24279;SDS011;12395;42.808;23.408;2022-11-20T04:56:47;2.13;;;0.90;;
24279;SDS011;12395;42.808;23.408;2022-11-20T04:59:13;3.85;;;0.82;;
24279;SDS011;12395;42.808;23.408;2022-11-20T05:01:39;1.17;;;0.60;;
24279;SDS011;12395;42.808;23.408;2022-11-20T05:04:04;3.15;;;1.00;;
24279;SDS011;12395;42.808;23.408;2022-11-20T05:06:32;2.65;;;0.95;;
24279;SDS011;12395;42.808;23.408;2022-11-20T05:08:57;1.50;;;0.90;;
24279;SDS011;12395;42.808;23.408;2022-11-20T05:11:23;2.05;;;0.90;;
24279;SDS011;12395;42.808;23.408;2022-11-20T05:13:49;3.25;;;0.60;;
24279;SDS011;12395;42.808;23.408;2022-11-20T05:16:16;3.03;;;0.80;;
24279;SDS011;12395;42.808;23.408;2022-11-20T05:18:43;2.60;;;0.77;;
24279;SDS011;12395;42.808;23.408;2022-11-20T05:21:10;3.13;;;1.00;;
24279;SDS011;12395;42.808;23.408;2022-11-20T05:23:36;2.33;;;0.80;;
24279;SDS011;12395;42.808;23.408;2022-11-20T05:26:02;3.17;;;0.90;;
24279;SDS011;12395;42.808;23.408;2022-11-20T05:28:29;2.43;;;1.00;;
24279;SDS011;12395;42.808;23.408;2022-11-20T05:30:56;3.05;;;0.80;;
24279;SDS011;12395;42.808;23.408;2022-11-20T05:33:36;2.63;;;1.00;;
24279;SDS011;12395;42.808;23.408;2022-11-20T05:36:04;2.90;;;0.90;;
24279;SDS011;12395;42.808;23.408;2022-11-20T05:38:30;0.93;;;0.60;;
24279;SDS011;12395;42.808;23.408;2022-11-20T05:41:02;2.35;;;0.60;;
24279;SDS011;12395;42.808;23.408;2022-11-20T05:43:31;2.40;;;0.60;;
24279;SDS011;12395;42.808;23.408;2022-11-20T05:45:57;2.55;;;0.75;;
24279;SDS011;12395;42.808;23.408;2022-11-20T05:48:22;3.28;;;0.88;;
24279;SDS011;12395;42.808;23.408;2022-11-20T05:50:48;2.13;;;0.70;;
24279;SDS011;12395;42.808;23.408;2022-11-20T05:53:13;2.10;;;0.75;;
24279;SDS011;12395;42.808;23.408;2022-11-20T05:55:38;3.33;;;0.90;;
24279;SDS011;12395;42.808;23.408;2022-11-20T05:58:04;4.00;;;0.90;;
24279;SDS011;12395;42.808;23.408;2022-11-20T06:00:29;3.83;;;1.20;;
24279;SDS011;12395;42.808;23.408;2022-11-20T06:02:55;1.40;;;1.00;;
24279;SDS011;12395;42.808;23.408;2022-11-20T06:05:20;1.27;;;0.90;;
24279;SDS011;12395;42.808;23.408;2022-11-20T06:07:45;3.17;;;1.30;;
24279;SDS011;12395;42.808;23.408;2022-11-20T06:10:11;3.70;;;1.33;;
24279;SDS011;12395;42.808;23.408;2022-11-20T06:12:36;3.78;;;1.10;;
24279;SDS011;12395;42.808;23.408;2022-11-20T06:15:02;2.55;;;1.27;;
24279;SDS011;12395;42.808;23.408;2022-11-20T06:17:28;5.45;;;2.00;;
24279;SDS011;12395;42.808;23.408;2022-11-20T06:19:53;4.25;;;2.03;;
24279;SDS011;12395;42.808;23.408;2022-11-20T06:22:18;4.55;;;1.50;;
24279;SDS011;12395;42.808;23.408;2022-11-20T06:24:44;5.63;;;1.88;;
24279;SDS011;12395;42.808;23.408;2022-11-20T06:27:09;3.55;;;1.30;;
24279;SDS011;12395;42.808;23.408;2022-11-20T06:29:34;4.40;;;1.58;;
24279;SDS011;12395;42.808;23.408;2022-11-20T06:32:00;7.43;;;2.70;;
24279;SDS011;12395;42.808;23.408;2022-11-20T06:34:26;9.93;;;3.08;;
24279;SDS011;12395;42.808;23.408;2022-11-20T06:36:51;7.18;;;2.70;;
24279;SDS011;12395;42.808;23.408;2022-11-20T06:39:17;6.63;;;2.30;;
24279;SDS011;12395;42.808;23.408;2022-11-20T06:41:42;4.45;;;2.10;;
24279;SDS011;12395;42.808;23.408;2022-11-20T06:44:07;3.38;;;1.30;;
24279;SDS011;12395;42.808;23.408;2022-11-20T06:46:33;9.07;;;2.60;;
24279;SDS011;12395;42.808;23.408;2022-11-20T06:48:59;5.78;;;2.50;;
24279;SDS011;12395;42.808;23.408;2022-11-20T06:51:24;4.97;;;2.10;;
24279;SDS011;12395;42.808;23.408;2022-11-20T06:53:50;3.75;;;1.58;;
24279;SDS011;12395;42.808;23.408;2022-11-20T06:56:15;4.53;;;1.40;;
24279;SDS011;12395;42.808;23.408;2022-11-20T06:58:41;3.38;;;1.58;;
24279;SDS011;12395;42.808;23.408;2022-11-20T07:01:08;2.63;;;1.10;;
24279;SDS011;12395;42.808;23.408;2022-11-20T07:03:36;3.13;;;1.30;;
24279;SDS011;12395;42.808;23.408;2022-11-20T07:06:02;3.33;;;0.95;;
24279;SDS011;12395;42.808;23.408;2022-11-20T07:08:28;6.38;;;1.42;;
24279;SDS011;12395;42.808;23.408;2022-11-20T07:10:56;13.35;;;4.30;;
24279;SDS011;12395;42.808;23.408;2022-11-20T07:13:23;3.42;;;1.75;;
24279;SDS011;12395;42.808;23.408;2022-11-20T07:15:49;3.38;;;1.50;;
24279;SDS011;12395;42.808;23.408;2022-11-20T07:18:14;5.90;;;1.30;;
24279;SDS011;12395;42.808;23.408;2022-11-20T07:20:39;2.70;;;1.25;;
24279;SDS011;12395;42.808;23.408;2022-11-20T07:23:05;5.05;;;2.50;;
24279;SDS011;12395;42.808;23.408;2022-11-20T07:25:30;4.03;;;1.23;;
24279;SDS011;12395;42.808;23.408;2022-11-20T07:27:59;3.75;;;1.20;;
24279;SDS011;12395;42.808;23.408;2022-11-20T07:30:26;5.15;;;1.67;;
24279;SDS011;12395;42.808;23.408;2022-11-20T07:32:52;4.65;;;1.50;;
24279;SDS011;12395;42.808;23.408;2022-11-20T07:35:18;5.28;;;1.70;;
24279;SDS011;12395;42.808;23.408;2022-11-20T07:37:44;5.25;;;2.10;;
24279;SDS011;12395;42.808;23.408;2022-11-20T07:40:11;6.32;;;1.48;;
24279;SDS011;12395;42.808;23.408;2022-11-20T07:42:37;5.93;;;2.23;;
24279;SDS011;12395;42.808;23.408;2022-11-20T07:45:02;4.65;;;1.55;;
24279;SDS011;12395;42.808;23.408;2022-11-20T07:47:28;4.78;;;1.65;;
24279;SDS011;12395;42.808;23.408;2022-11-20T07:49:53;4.38;;;1.85;;
24279;SDS011;12395;42.808;23.408;2022-11-20T07:52:18;9.75;;;2.70;;
24279;SDS011;12395;42.808;23.408;2022-11-20T07:54:44;3.53;;;1.77;;
24279;SDS011;12395;42.808;23.408;2022-11-20T07:57:09;5.43;;;2.63;;
24279;SDS011;12395;42.808;23.408;2022-11-20T07:59:35;4.43;;;2.38;;
24279;SDS011;12395;42.808;23.408;2022-11-20T08:02:00;5.30;;;1.80;;
24279;SDS011;12395;42.808;23.408;2022-11-20T08:04:26;6.82;;;3.20;;
24279;SDS011;12395;42.808;23.408;2022-11-20T08:06:51;6.05;;;2.40;;
24279;SDS011;12395;42.808;23.408;2022-11-20T08:09:18;6.95;;;3.65;;
24279;SDS011;12395;42.808;23.408;2022-11-20T08:11:43;7.97;;;2.45;;
24279;SDS011;12395;42.808;23.408;2022-11-20T08:14:27;4.53;;;1.75;;
24279;SDS011;12395;42.808;23.408;2022-11-20T08:16:52;5.70;;;1.90;;
24279;SDS011;12395;42.808;23.408;2022-11-20T08:19:18;4.43;;;1.40;;
24279;SDS011;12395;42.808;23.408;2022-11-20T08:21:44;4.00;;;1.63;;
24279;SDS011;12395;42.808;23.408;2022-11-20T08:24:10;3.70;;;1.52;;
24279;SDS011;12395;42.808;23.408;2022-11-20T08:26:36;4.05;;;1.70;;
24279;SDS011;12395;42.808;23.408;2022-11-20T08:29:03;4.40;;;1.87;;
24279;SDS011;12395;42.808;23.408;2022-11-20T08:31:29;3.90;;;1.67;;
24279;SDS011;12395;42.808;23.408;2022-11-20T08:33:54;4.35;;;1.80;;
24279;SDS011;12395;42.808;23.408;2022-11-20T08:36:21;6.45;;;1.77;;
24279;SDS011;12395;42.808;23.408;2022-11-20T08:38:48;5.40;;;1.70;;
24279;SDS011;12395;42.808;23.408;2022-11-20T08:41:14;8.45;;;3.30;;
24279;SDS011;12395;42.808;23.408;2022-11-20T08:43:49;5.38;;;2.30;;
24279;SDS011;12395;42.808;23.408;2022-11-20T08:46:16;5.10;;;2.00;;
24279;SDS011;12395;42.808;23.408;2022-11-20T08:48:41;5.20;;;2.03;;
24279;SDS011;12395;42.808;23.408;2022-11-20T08:51:07;4.85;;;1.60;;
24279;SDS011;12395;42.808;23.408;2022-11-20T08:53:33;5.35;;;2.25;;
24279;SDS011;12395;42.808;23.408;2022-11-20T08:55:59;5.03;;;1.98;;
24279;SDS011;12395;42.808;23.408;2022-11-20T08:58:24;8.65;;;2.28;;
24279;SDS011;12395;42.808;23.408;2022-11-20T09:00:50;8.98;;;2.88;;
24279;SDS011;12395;42.808;23.408;2022-11-20T09:03:15;9.48;;;3.90;;
24279;SDS011;12395;42.808;23.408;2022-11-20T09:05:41;13.23;;;4.68;;
24279;SDS011;12395;42.808;23.408;2022-11-20T09:08:07;8.43;;;2.95;;
24279;SDS011;12395;42.808;23.408;2022-11-20T09:10:33;10.20;;;3.80;;
24279;SDS011;12395;42.808;23.408;2022-11-20T09:12:58;13.90;;;4.72;;
24279;SDS011;12395;42.808;23.408;2022-11-20T09:15:24;8.15;;;3.30;;
24279;SDS011;12395;42.808;23.408;2022-11-20T09:17:54;7.38;;;2.63;;
24279;SDS011;12395;42.808;23.408;2022-11-20T09:20:20;7.13;;;2.60;;
24279;SDS011;12395;42.808;23.408;2022-11-20T09:22:46;6.13;;;1.75;;
24279;SDS011;12395;42.808;23.408;2022-11-20T09:25:12;3.63;;;1.80;;
24279;SDS011;12395;42.808;23.408;2022-11-20T09:27:37;6.43;;;2.00;;
24279;SDS011;12395;42.808;23.408;2022-11-20T09:30:03;8.40;;;2.78;;
24279;SDS011;12395;42.808;23.408;2022-11-20T09:32:29;9.75;;;3.60;;
24279;SDS011;12395;42.808;23.408;2022-11-20T09:34:54;7.68;;;3.20;;
24279;SDS011;12395;42.808;23.408;2022-11-20T09:37:19;7.82;;;2.58;;
24279;SDS011;12395;42.808;23.408;2022-11-20T09:39:45;7.35;;;3.60;;
24279;SDS011;12395;42.808;23.408;2022-11-20T09:42:29;11.88;;;5.65;;
24279;SDS011;12395;42.808;23.408;2022-11-20T09:47:49;11.95;;;5.28;;
24279;SDS011;12395;42.808;23.408;2022-11-20T09:50:40;7.45;;;2.80;;
24279;SDS011;12395;42.808;23.408;2022-11-20T09:53:29;9.48;;;3.45;;
24279;SDS011;12395;42.808;23.408;2022-11-20T09:56:01;14.57;;;4.43;;
24279;SDS011;12395;42.808;23.408;2022-11-20T09:58:30;14.50;;;4.63;;
24279;SDS011;12395;42.808;23.408;2022-11-20T10:01:03;13.43;;;5.32;;
24279;SDS011;12395;42.808;23.408;2022-11-20T10:03:37;4.72;;;2.50;;
24279;SDS011;12395;42.808;23.408;2022-11-20T10:06:11;7.95;;;2.60;;
24279;SDS011;12395;42.808;23.408;2022-11-20T10:08:41;4.18;;;2.30;;
24279;SDS011;12395;42.808;23.408;2022-11-20T10:25:33;6.50;;;2.35;;
24279;SDS011;12395;42.808;23.408;2022-11-20T10:31:04;4.45;;;2.17;;
24279;SDS011;12395;42.808;23.408;2022-11-20T10:33:42;5.60;;;2.20;;
24279;SDS011;12395;42.808;23.408;2022-11-20T10:36:21;7.03;;;2.25;;
24279;SDS011;12395;42.808;23.408;2022-11-20T10:38:49;5.53;;;2.08;;
24279;SDS011;12395;42.808;23.408;2022-11-20T10:44:05;17.42;;;10.60;;
24279;SDS011;12395;42.808;23.408;2022-11-20T10:46:45;7.78;;;1.85;;
24279;SDS011;12395;42.808;23.408;2022-11-20T10:49:12;5.90;;;2.00;;
24279;SDS011;12395;42.808;23.408;2022-11-20T10:56:53;11.13;;;3.40;;
24279;SDS011;12395;42.808;23.408;2022-11-20T11:01:56;6.00;;;2.85;;
24279;SDS011;12395;42.808;23.408;2022-11-20T11:06:54;7.30;;;3.17;;
24279;SDS011;12395;42.808;23.408;2022-11-20T11:09:32;8.50;;;2.78;;
24279;SDS011;12395;42.808;23.408;2022-11-20T11:12:05;7.80;;;3.50;;
24279;SDS011;12395;42.808;23.408;2022-11-20T11:14:41;14.55;;;6.80;;
24279;SDS011;12395;42.808;23.408;2022-11-20T11:22:42;8.80;;;3.88;;
24279;SDS011;12395;42.808;23.408;2022-11-20T11:25:36;5.30;;;1.88;;
24279;SDS011;12395;42.808;23.408;2022-11-20T11:28:03;3.33;;;1.90;;
24279;SDS011;12395;42.808;23.408;2022-11-20T11:30:44;3.13;;;1.33;;
24279;SDS011;12395;42.808;23.408;2022-11-20T11:33:11;2.08;;;1.30;;
24279;SDS011;12395;42.808;23.408;2022-11-20T11:35:47;4.97;;;1.80;;
24279;SDS011;12395;42.808;23.408;2022-11-20T11:38:36;5.65;;;1.92;;
24279;SDS011;12395;42.808;23.408;2022-11-20T11:41:03;5.32;;;2.42;;
24279;SDS011;12395;42.808;23.408;2022-11-20T11:43:31;9.32;;;2.40;;
24279;SDS011;12395;42.808;23.408;2022-11-20T11:48:59;9.55;;;3.53;;
24279;SDS011;12395;42.808;23.408;2022-11-20T11:51:28;8.95;;;3.30;;
24279;SDS011;12395;42.808;23.408;2022-11-20T11:54:03;9.02;;;3.75;;
24279;SDS011;12395;42.808;23.408;2022-11-20T11:56:38;5.32;;;2.08;;
24279;SDS011;12395;42.808;23.408;2022-11-20T11:59:04;4.82;;;1.60;;
24279;SDS011;12395;42.808;23.408;2022-11-20T12:01:54;5.53;;;1.90;;
24279;SDS011;12395;42.808;23.408;2022-11-20T12:10:20;5.93;;;1.70;;
24279;SDS011;12395;42.808;23.408;2022-11-20T12:12:50;4.93;;;1.70;;
24279;SDS011;12395;42.808;23.408;2022-11-20T12:15:25;5.47;;;1.92;;
24279;SDS011;12395;42.808;23.408;2022-11-20T12:17:54;3.80;;;1.65;;
24279;SDS011;12395;42.808;23.408;2022-11-20T12:20:21;6.03;;;1.70;;
24279;SDS011;12395;42.808;23.408;2022-11-20T12:22:54;3.97;;;1.30;;
24279;SDS011;12395;42.808;23.408;2022-11-20T12:25:30;2.80;;;1.40;;
24279;SDS011;12395;42.808;23.408;2022-11-20T12:30:35;3.45;;;1.35;;
24279;SDS011;12395;42.808;23.408;2022-11-20T12:33:29;3.20;;;1.05;;
24279;SDS011;12395;42.808;23.408;2022-11-20T12:47:37;4.60;;;1.45;;
24279;SDS011;12395;42.808;23.408;2022-11-20T12:56:26;5.82;;;1.38;;
24279;SDS011;12395;42.808;23.408;2022-11-20T13:02:19;3.35;;;0.95;;
24279;SDS011;12395;42.808;23.408;2022-11-20T13:06:15;3.58;;;1.30;;
24279;SDS011;12395;42.808;23.408;2022-11-20T13:08:38;4.97;;;1.17;;
24279;SDS011;12395;42.808;23.408;2022-11-20T13:16:29;4.07;;;1.25;;
24279;SDS011;12395;42.808;23.408;2022-11-20T13:19:04;5.55;;;1.20;;
24279;SDS011;12395;42.808;23.408;2022-11-20T13:21:35;3.72;;;1.08;;
24279;SDS011;12395;42.808;23.408;2022-11-20T13:24:06;4.22;;;1.25;;
24279;SDS011;12395;42.808;23.408;2022-11-20T13:26:33;4.68;;;1.10;;
24279;SDS011;12395;42.808;23.408;2022-11-20T13:29:09;4.63;;;1.10;;
24279;SDS011;12395;42.808;23.408;2022-11-20T13:31:38;3.78;;;1.15;;
24279;SDS011;12395;42.808;23.408;2022-11-20T13:34:10;4.88;;;1.27;;
24279;SDS011;12395;42.808;23.408;2022-11-20T13:36:47;5.07;;;1.10;;
24279;SDS011;12395;42.808;23.408;2022-11-20T13:39:23;2.50;;;1.00;;
24279;SDS011;12395;42.808;23.408;2022-11-20T13:42:00;5.07;;;1.23;;
24279;SDS011;12395;42.808;23.408;2022-11-20T13:44:29;3.38;;;1.25;;
24279;SDS011;12395;42.808;23.408;2022-11-20T13:47:00;5.90;;;1.30;;
24279;SDS011;12395;42.808;23.408;2022-11-20T13:49:27;3.15;;;1.35;;
24279;SDS011;12395;42.808;23.408;2022-11-20T13:54:52;7.78;;;1.70;;
24279;SDS011;12395;42.808;23.408;2022-11-20T14:00:14;5.40;;;1.42;;
24279;SDS011;12395;42.808;23.408;2022-11-20T14:02:42;3.05;;;0.82;;
24279;SDS011;12395;42.808;23.408;2022-11-20T14:05:22;3.83;;;1.00;;
24279;SDS011;12395;42.808;23.408;2022-11-20T14:07:49;4.18;;;1.20;;
24279;SDS011;12395;42.808;23.408;2022-11-20T14:13:09;1.85;;;1.05;;
24279;SDS011;12395;42.808;23.408;2022-11-20T14:15:40;3.80;;;1.10;;
24279;SDS011;12395;42.808;23.408;2022-11-20T14:18:41;1.92;;;1.25;;
24279;SDS011;12395;42.808;23.408;2022-11-20T14:21:02;2.92;;;0.80;;
24279;SDS011;12395;42.808;23.408;2022-11-20T14:23:29;3.00;;;1.00;;
24279;SDS011;12395;42.808;23.408;2022-11-20T14:25:54;3.58;;;0.90;;
24279;SDS011;12395;42.808;23.408;2022-11-20T14:28:25;1.77;;;0.80;;
24279;SDS011;12395;42.808;23.408;2022-11-20T14:30:52;2.28;;;0.80;;
24279;SDS011;12395;42.808;23.408;2022-11-20T14:33:18;3.58;;;0.90;;
24279;SDS011;12395;42.808;23.408;2022-11-20T14:38:11;1.70;;;0.82;;
24279;SDS011;12395;42.808;23.408;2022-11-20T14:40:39;2.55;;;0.90;;
24279;SDS011;12395;42.808;23.408;2022-11-20T14:43:16;2.15;;;0.55;;
24279;SDS011;12395;42.808;23.408;2022-11-20T14:45:42;2.90;;;0.80;;
24279;SDS011;12395;42.808;23.408;2022-11-20T14:48:09;2.50;;;0.55;;
24279;SDS011;12395;42.808;23.408;2022-11-20T14:50:37;2.90;;;0.77;;
24279;SDS011;12395;42.808;23.408;2022-11-20T14:53:03;1.45;;;0.70;;
24279;SDS011;12395;42.808;23.408;2022-11-20T14:55:33;1.02;;;0.52;;
24279;SDS011;12395;42.808;23.408;2022-11-20T14:58:04;0.93;;;0.50;;
24279;SDS011;12395;42.808;23.408;2022-11-20T15:00:32;3.45;;;0.88;;
24279;SDS011;12395;42.808;23.408;2022-11-20T15:02:59;1.90;;;0.57;;
24279;SDS011;12395;42.808;23.408;2022-11-20T15:05:25;2.42;;;0.63;;
24279;SDS011;12395;42.808;23.408;2022-11-20T15:08:09;1.27;;;0.55;;
24279;SDS011;12395;42.808;23.408;2022-11-20T15:10:35;0.50;;;0.40;;
24279;SDS011;12395;42.808;23.408;2022-11-20T15:13:05;1.00;;;0.60;;
24279;SDS011;12395;42.808;23.408;2022-11-20T15:15:49;2.17;;;0.50;;
24279;SDS011;12395;42.808;23.408;2022-11-20T15:18:17;2.78;;;0.60;;
24279;SDS011;12395;42.808;23.408;2022-11-20T15:20:46;0.80;;;0.47;;
24279;SDS011;12395;42.808;23.408;2022-11-20T15:23:12;0.40;;;0.40;;
24279;SDS011;12395;42.808;23.408;2022-11-20T15:25:39;0.73;;;0.55;;
24279;SDS011;12395;42.808;23.408;2022-11-20T15:28:09;13.63;;;8.48;;
24279;SDS011;12395;42.808;23.408;2022-11-20T15:30:41;14.20;;;8.43;;
24279;SDS011;12395;42.808;23.408;2022-11-20T15:33:07;8.57;;;4.32;;
24279;SDS011;12395;42.808;23.408;2022-11-20T15:35:33;4.07;;;2.33;;
24279;SDS011;12395;42.808;23.408;2022-11-20T15:37:59;7.20;;;3.45;;
24279;SDS011;12395;42.808;23.408;2022-11-20T15:40:24;3.90;;;1.70;;
24279;SDS011;12395;42.808;23.408;2022-11-20T15:42:49;4.80;;;2.40;;
24279;SDS011;12395;42.808;23.408;2022-11-20T15:45:43;3.47;;;1.65;;
24279;SDS011;12395;42.808;23.408;2022-11-20T15:48:12;2.65;;;1.15;;
24279;SDS011;12395;42.808;23.408;2022-11-20T15:50:43;3.47;;;1.50;;
24279;SDS011;12395;42.808;23.408;2022-11-20T15:53:15;4.18;;;1.48;;
24279;SDS011;12395;42.808;23.408;2022-11-20T15:55:41;3.67;;;1.23;;
24279;SDS011;12395;42.808;23.408;2022-11-20T15:58:06;2.83;;;1.10;;
24279;SDS011;12395;42.808;23.408;2022-11-20T16:00:31;2.63;;;1.00;;
24279;SDS011;12395;42.808;23.408;2022-11-20T16:02:57;1.20;;;0.82;;
24279;SDS011;12395;42.808;23.408;2022-11-20T16:05:22;2.15;;;0.73;;
24279;SDS011;12395;42.808;23.408;2022-11-20T16:07:48;2.13;;;0.82;;
24279;SDS011;12395;42.808;23.408;2022-11-20T16:10:15;1.00;;;0.60;;
24279;SDS011;12395;42.808;23.408;2022-11-20T16:12:40;4.43;;;1.77;;
24279;SDS011;12395;42.808;23.408;2022-11-20T16:15:24;2.67;;;0.80;;
24279;SDS011;12395;42.808;23.408;2022-11-20T16:18:08;0.45;;;0.40;;